Time;durP1;ratioP1;P1;durP2;ratioP2;P2;SDS_P1;SDS_P2;PMS_P1;PMS_P2;Temp;Humidity;BMP_temperature;BMP_pressure;BME280_temperature;BME280_humidity;BME280_pressure;Samples;Min_cycle;Max_cycle;Signal;HPM_P1;HPM_P2
2022/05/11 00:00:45;;;;;;;18.48;15.02;;;;;;;10.88;100.00;101123.84;4993027;28;20618;-50
2022/05/11 00:03:10;;;;;;;20.50;14.73;;;;;;;10.90;100.00;101124.66;4990970;28;20537;-49
2022/05/11 00:05:36;;;;;;;18.55;15.00;;;;;;;10.94;100.00;101117.41;4992996;28;20175;-49
2022/05/11 00:08:03;;;;;;;19.00;13.93;;;;;;;10.87;100.00;101122.09;4992888;28;20176;-48
2022/05/11 00:10:28;;;;;;;17.77;15.13;;;;;;;10.80;100.00;101112.53;4992951;28;20197;-48
2022/05/11 00:12:53;;;;;;;21.60;14.88;;;;;;;10.67;100.00;101104.03;4992563;28;20170;-49
2022/05/11 00:15:22;;;;;;;26.70;16.38;;;;;;;10.63;100.00;101096.16;4992785;28;20561;-49
2022/05/11 00:17:47;;;;;;;25.75;17.33;;;;;;;10.65;100.00;101116.59;4992741;28;20646;-48
2022/05/11 00:20:14;;;;;;;26.83;17.08;;;;;;;10.70;100.00;101111.09;4992711;28;20276;-50
2022/05/11 00:22:41;;;;;;;22.52;17.48;;;;;;;10.70;100.00;101105.72;4992679;28;20212;-48
2022/05/11 00:25:08;;;;;;;27.38;18.85;;;;;;;10.61;100.00;101101.56;4992374;28;20704;-48
2022/05/11 00:27:34;;;;;;;26.33;19.88;;;;;;;10.69;100.00;101101.28;4991648;28;20214;-50
2022/05/11 00:29:59;;;;;;;31.23;18.83;;;;;;;10.71;100.00;101094.97;4975050;28;20263;-50
2022/05/11 00:32:25;;;;;;;26.98;17.95;;;;;;;10.75;100.00;101093.03;4992412;28;20181;-48
2022/05/11 00:34:52;;;;;;;26.85;20.02;;;;;;;10.80;100.00;101098.22;4991940;28;20559;-47
2022/05/11 00:37:18;;;;;;;26.45;18.38;;;;;;;10.82;100.00;101091.00;4992477;28;20169;-49
2022/05/11 00:39:44;;;;;;;27.48;18.63;;;;;;;10.87;100.00;101100.66;4993030;28;20170;-48
2022/05/11 00:42:10;;;;;;;28.90;19.48;;;;;;;10.83;100.00;101090.09;4992459;28;20174;-49
2022/05/11 00:44:36;;;;;;;29.80;18.65;;;;;;;10.78;100.00;101092.03;4992118;28;20523;-46
2022/05/11 00:47:26;;;;;;;29.60;19.95;;;;;;;10.81;100.00;101095.50;4992253;28;20212;-48
2022/05/11 00:49:55;;;;;;;23.35;17.65;;;;;;;10.84;100.00;101089.16;4974219;28;20232;-48
2022/05/11 00:52:24;;;;;;;25.90;18.95;;;;;;;10.78;100.00;101084.91;4992479;28;20185;-48
2022/05/11 00:54:59;;;;;;;31.73;21.38;;;;;;;10.75;100.00;101085.00;4991703;28;20722;-48
2022/05/11 00:57:31;;;;;;;27.63;19.55;;;;;;;10.83;100.00;101093.66;4992140;28;20180;-48
2022/05/11 00:59:57;;;;;;;31.52;20.67;;;;;;;10.82;100.00;101088.31;4991706;28;20196;-49
2022/05/11 01:02:23;;;;;;;30.20;22.05;;;;;;;10.76;100.00;101085.84;4992420;28;20285;-49
2022/05/11 01:04:53;;;;;;;27.88;20.67;;;;;;;10.80;100.00;101080.38;4992015;28;20261;-49
2022/05/11 01:07:18;;;;;;;32.88;21.98;;;;;;;10.83;100.00;101085.59;4991952;28;20177;-47
2022/05/11 01:09:43;;;;;;;29.83;21.38;;;;;;;10.80;100.00;101092.88;4991399;28;20204;-48
2022/05/11 01:12:16;;;;;;;35.65;22.90;;;;;;;10.72;100.00;101091.34;4991824;28;20170;-48
2022/05/11 01:14:44;;;;;;;38.33;24.35;;;;;;;10.64;100.00;101093.41;4991804;28;20173;-48
2022/05/11 01:17:11;;;;;;;36.88;24.38;;;;;;;10.72;100.00;101099.38;4971377;28;20174;-48
2022/05/11 01:19:40;;;;;;;39.03;24.88;;;;;;;10.72;100.00;101099.38;4983115;28;20188;-49
2022/05/11 01:22:15;;;;;;;29.40;22.88;;;;;;;10.78;100.00;101095.63;4990228;28;20265;-49
2022/05/11 01:24:45;;;;;;;31.65;24.50;;;;;;;10.71;100.00;101089.59;4990908;28;20169;-49
2022/05/11 01:27:36;;;;;;;36.63;24.17;;;;;;;10.71;100.00;101072.63;4990958;28;20176;-49
2022/05/11 01:30:22;;;;;;;34.53;24.42;;;;;;;10.70;100.00;101078.91;4991110;28;20662;-47
2022/05/11 01:32:50;;;;;;;37.17;24.38;;;;;;;10.68;100.00;101075.41;4990447;28;20236;-49
2022/05/11 01:35:44;;;;;;;36.85;24.15;;;;;;;10.65;100.00;101068.38;4990173;28;20252;-50
2022/05/11 01:38:50;;;;;;;35.42;25.67;;;;;;;10.75;100.00;101068.91;4990487;28;20186;-48
2022/05/11 01:41:32;;;;;;;31.73;23.80;;;;;;;10.74;100.00;101060.94;4893372;29;20291;-48
2022/05/11 01:44:00;;;;;;;30.95;23.33;;;;;;;10.79;100.00;101067.00;4892777;29;20189;-47
2022/05/11 01:46:27;;;;;;;31.88;23.70;;;;;;;10.76;100.00;101065.31;4951876;28;20189;-47
2022/05/11 01:48:53;;;;;;;33.92;23.13;;;;;;;10.81;100.00;101071.38;4991101;28;20212;-48
2022/05/11 01:51:19;;;;;;;33.47;22.35;;;;;;;10.84;100.00;101075.75;4991073;28;20578;-48
2022/05/11 01:53:46;;;;;;;37.03;24.40;;;;;;;10.87;100.00;101072.97;4990775;28;20196;-48
2022/05/11 01:56:16;;;;;;;31.92;22.83;;;;;;;10.92;100.00;101071.88;4991054;28;20157;-47
2022/05/11 01:58:41;;;;;;;33.25;23.27;;;;;;;10.93;100.00;101056.66;4990811;28;20671;-47
2022/05/11 02:01:07;;;;;;;30.80;22.65;;;;;;;11.01;100.00;101064.44;4990649;28;20213;-46
2022/05/11 02:03:33;;;;;;;32.10;21.70;;;;;;;10.95;100.00;101065.50;4987985;28;20184;-47
2022/05/11 02:08:44;;;;;;;25.30;19.52;;;;;;;11.01;100.00;101046.53;4990923;28;20296;-47
2022/05/11 02:11:12;;;;;;;30.63;21.05;;;;;;;11.01;100.00;101038.50;4990356;28;20212;-47
2022/05/11 02:13:38;;;;;;;27.30;20.55;;;;;;;10.99;100.00;101034.97;4990182;28;20173;-47
2022/05/11 02:16:04;;;;;;;33.40;22.40;;;;;;;10.96;100.00;101021.72;4990723;28;20673;-47
2022/05/11 02:18:29;;;;;;;29.90;22.52;;;;;;;10.90;100.00;101035.31;4990531;28;20186;-47
2022/05/11 02:20:55;;;;;;;29.52;21.50;;;;;;;10.95;100.00;101036.03;4991203;28;20903;-47
2022/05/11 02:23:22;;;;;;;28.75;20.95;;;;;;;10.91;100.00;101043.31;4990100;28;20181;-48
2022/05/11 02:25:49;;;;;;;29.10;21.25;;;;;;;10.88;100.00;101035.38;4990757;28;20588;-47
2022/05/11 02:28:16;;;;;;;30.77;21.05;;;;;;;10.87;100.00;101035.44;4989905;28;20181;-46
2022/05/11 02:30:43;;;;;;;29.08;21.63;;;;;;;10.80;100.00;101034.81;4990169;28;20233;-47
2022/05/11 02:33:09;;;;;;;29.52;21.58;;;;;;;10.75;100.00;101038.56;4990150;28;20272;-46
2022/05/11 02:35:35;;;;;;;31.48;22.35;;;;;;;10.80;100.00;101033.91;4990530;28;20581;-47
2022/05/11 02:38:07;;;;;;;33.30;23.15;;;;;;;10.70;100.00;101020.84;4990888;28;20189;-47
2022/05/11 02:40:35;;;;;;;30.85;22.70;;;;;;;10.76;100.00;101019.75;4990238;28;20177;-48
2022/05/11 02:43:01;;;;;;;35.95;23.98;;;;;;;10.77;100.00;101023.31;4989869;28;20200;-48
2022/05/11 02:45:27;;;;;;;29.98;22.65;;;;;;;10.79;100.00;101033.03;4988650;28;20637;-49
2022/05/11 02:47:53;;;;;;;38.08;24.25;;;;;;;10.83;100.00;101037.34;4989746;28;20232;-47
2022/05/11 02:50:24;;;;;;;35.70;23.88;;;;;;;10.81;100.00;101036.53;4990187;28;20291;-48
2022/05/11 02:52:50;;;;;;;32.17;22.45;;;;;;;10.80;100.00;101028.53;4990274;28;20157;-49
2022/05/11 02:55:15;;;;;;;32.42;22.70;;;;;;;10.89;100.00;101020.19;4989994;28;20606;-47
2022/05/11 02:57:41;;;;;;;31.15;21.88;;;;;;;11.00;100.00;101022.44;4989901;28;20551;-48
2022/05/11 03:00:09;;;;;;;27.65;22.95;;;;;;;10.96;100.00;101018.16;4993085;28;20317;-48
2022/05/11 03:02:35;;;;;;;34.30;22.13;;;;;;;10.88;100.00;101021.09;4994260;28;20177;-48
2022/05/11 03:05:01;;;;;;;30.73;23.00;;;;;;;10.86;100.00;101017.59;4993827;28;20169;-47
2022/05/11 03:07:27;;;;;;;31.75;23.20;;;;;;;10.86;100.00;101009.56;4994457;28;20187;-46
2022/05/11 03:09:53;;;;;;;35.17;22.58;;;;;;;10.83;100.00;101005.19;4993756;28;20533;-48
2022/05/11 03:12:22;;;;;;;34.03;23.75;;;;;;;10.88;100.00;101010.38;4993948;28;20215;-48
2022/05/11 03:14:48;;;;;;;35.05;22.75;;;;;;;10.92;100.00;101012.03;4993701;28;20640;-47
2022/05/11 03:17:14;;;;;;;31.92;22.33;;;;;;;10.91;100.00;101000.44;4987907;28;20209;-46
2022/05/11 03:19:39;;;;;;;28.80;21.95;;;;;;;10.90;100.00;101004.03;4986163;28;20177;-45
2022/05/11 03:22:05;;;;;;;26.85;20.45;;;;;;;10.99;100.00;100994.78;4992547;28;20695;-46
2022/05/11 03:24:30;;;;;;;34.08;20.85;;;;;;;10.97;100.00;100995.75;4990219;28;20205;-47
2022/05/11 03:26:56;;;;;;;26.75;19.48;;;;;;;11.04;100.00;101000.84;4993306;28;20221;-46
2022/05/11 03:29:21;;;;;;;27.38;19.75;;;;;;;11.00;100.00;100999.22;4992122;28;20312;-48
2022/05/11 03:34:37;;;;;;;31.30;20.52;;;;;;;11.03;100.00;101003.59;4993189;28;20652;-46
2022/05/11 03:37:12;;;;;;;26.10;19.55;;;;;;;10.98;100.00;101000.22;4993057;28;20636;-48
2022/05/11 03:39:37;;;;;;;26.63;18.63;;;;;;;11.03;100.00;100999.09;4993116;28;20179;-49
2022/05/11 03:42:04;;;;;;;27.10;19.80;;;;;;;11.01;100.00;100992.03;4993172;28;20173;-47
2022/05/11 03:44:30;;;;;;;28.77;19.67;;;;;;;11.04;100.00;100997.28;4991462;28;20169;-46
2022/05/11 03:46:55;;;;;;;27.77;19.40;;;;;;;10.98;100.00;101001.06;4993215;28;20182;-48
2022/05/11 03:49:22;;;;;;;27.20;19.90;;;;;;;10.98;100.00;100992.16;4991765;28;20292;-48
2022/05/11 03:51:48;;;;;;;29.38;20.55;;;;;;;10.98;100.00;100986.81;4992863;28;20649;-48
2022/05/11 03:54:14;;;;;;;28.95;20.00;;;;;;;10.98;100.00;100979.63;4992733;28;20209;-47
2022/05/11 03:56:39;;;;;;;24.33;19.33;;;;;;;11.00;100.00;100972.41;4992672;28;20181;-47
2022/05/11 03:59:05;;;;;;;23.98;19.27;;;;;;;11.01;100.00;100971.47;4992950;28;20182;-46
2022/05/11 04:01:30;;;;;;;28.23;19.50;;;;;;;10.99;100.00;100965.28;4992897;28;20196;-47
2022/05/11 04:03:56;;;;;;;24.85;19.17;;;;;;;11.07;100.00;100963.19;4992443;28;20181;-48
2022/05/11 04:06:21;;;;;;;25.95;18.40;;;;;;;11.09;100.00;100965.81;4992968;28;20623;-45
2022/05/11 04:08:46;;;;;;;26.95;20.15;;;;;;;11.02;100.00;100953.56;4990974;28;20211;-51
2022/05/11 04:11:12;;;;;;;27.08;19.50;;;;;;;10.97;100.00;100956.41;4991292;28;20212;-52
2022/05/11 04:13:40;;;;;;;27.80;20.65;;;;;;;10.92;100.00;100951.22;4992180;28;20201;-46
2022/05/11 04:16:07;;;;;;;28.85;19.95;;;;;;;10.98;100.00;100952.81;4991386;28;20715;-48
2022/05/11 04:18:34;;;;;;;26.63;20.27;;;;;;;10.98;100.00;100952.81;4992105;28;20193;-50
2022/05/11 04:21:00;;;;;;;25.90;20.65;;;;;;;11.01;100.00;100949.16;4992500;28;20220;-53
2022/05/11 04:23:26;;;;;;;26.17;20.35;;;;;;;11.08;100.00;100948.84;4990971;28;20239;-47
2022/05/11 04:25:51;;;;;;;30.52;20.88;;;;;;;11.07;100.00;100939.06;4992130;28;20648;-46
2022/05/11 04:28:17;;;;;;;23.95;20.42;;;;;;;11.16;100.00;100945.88;4992413;28;20161;-47
2022/05/11 04:30:43;;;;;;;30.42;20.48;;;;;;;11.12;100.00;100934.38;4991919;28;20610;-45
2022/05/11 04:33:09;;;;;;;28.02;20.17;;;;;;;11.11;100.00;100938.00;4992229;28;20177;-47
2022/05/11 04:35:36;;;;;;;26.95;20.15;;;;;;;11.15;100.00;100936.09;4991949;28;20640;-46
2022/05/11 04:38:03;;;;;;;28.85;20.90;;;;;;;11.18;100.00;100930.59;4992629;28;20209;-47
2022/05/11 04:40:30;;;;;;;27.05;19.42;;;;;;;11.21;100.00;100937.66;4992377;28;20276;-47
2022/05/11 04:42:55;;;;;;;27.85;20.73;;;;;;;11.26;100.00;100941.91;4992475;28;20181;-48
2022/05/11 04:45:21;;;;;;;23.77;18.83;;;;;;;11.31;100.00;100933.69;4992109;28;20743;-48
2022/05/11 04:47:47;;;;;;;24.92;19.02;;;;;;;11.32;100.00;100930.91;4992361;28;20313;-48
2022/05/11 04:50:14;;;;;;;27.80;19.30;;;;;;;11.31;100.00;100920.25;4992358;28;20220;-46
2022/05/11 04:52:40;;;;;;;26.58;19.05;;;;;;;11.35;100.00;100921.91;4992693;28;20169;-48
2022/05/11 04:55:09;;;;;;;27.27;19.23;;;;;;;11.43;100.00;100910.84;4991776;28;20195;-47
2022/05/11 04:57:35;;;;;;;23.50;19.38;;;;;;;11.49;100.00;100903.41;4992431;28;20200;-48
2022/05/11 05:00:03;;;;;;;26.55;19.17;;;;;;;11.45;100.00;100908.97;4991799;28;20196;-47
2022/05/11 05:02:28;;;;;;;21.80;17.50;;;;;;;11.58;100.00;100914.72;4991872;28;20184;-48
2022/05/11 05:04:59;;;;;;;28.45;18.35;;;;;;;11.59;100.00;100909.28;4991712;28;20177;-49
2022/05/11 05:07:24;;;;;;;27.52;17.92;;;;;;;11.58;100.00;100906.66;4992248;28;20178;-50
2022/05/11 05:09:50;;;;;;;27.67;18.33;;;;;;;11.60;100.00;100908.34;4991268;28;20291;-48
2022/05/11 05:12:15;;;;;;;21.95;17.17;;;;;;;11.72;100.00;100902.47;4991852;28;20193;-46
2022/05/11 05:14:44;;;;;;;27.35;17.80;;;;;;;11.68;100.00;100895.47;4991732;28;20173;-47
2022/05/11 05:17:12;;;;;;;21.75;17.00;;;;;;;11.74;100.00;100895.22;4991724;28;20178;-47
2022/05/11 05:19:43;;;;;;;24.15;17.60;;;;;;;11.76;100.00;100897.84;4974217;28;20166;-48
2022/05/11 05:22:09;;;;;;;21.50;18.13;;;;;;;11.74;100.00;100894.34;4990013;28;20272;-46
2022/05/11 05:24:35;;;;;;;24.83;17.55;;;;;;;11.79;100.00;100888.81;4991315;28;20514;-47
2022/05/11 05:27:00;;;;;;;26.10;17.20;;;;;;;11.80;100.00;100888.72;4991518;28;20178;-49
2022/05/11 05:32:11;;;;;;;24.35;16.02;;;;;;;11.94;100.00;100891.72;4991629;28;20188;-46
2022/05/11 05:34:36;;;;;;;19.85;16.85;;;;;;;11.84;100.00;100879.59;4990090;28;20616;-49
2022/05/11 05:37:02;;;;;;;24.13;17.83;;;;;;;11.85;100.00;100875.09;4991480;28;20268;-48
2022/05/11 05:39:28;;;;;;;23.63;17.30;;;;;;;11.87;100.00;100892.91;4990983;28;20545;-49
2022/05/11 05:41:53;;;;;;;24.45;18.38;;;;;;;11.79;100.00;100889.66;4991201;28;20200;-47
2022/05/11 05:44:19;;;;;;;23.80;18.02;;;;;;;11.84;100.00;100871.53;4990846;28;20861;-45
2022/05/11 05:46:45;;;;;;;29.02;19.27;;;;;;;11.86;100.00;100884.91;4991356;28;20165;-49
2022/05/11 05:49:12;;;;;;;26.63;19.45;;;;;;;11.87;100.00;100875.91;4991353;28;20542;-49
2022/05/11 05:51:39;;;;;;;27.30;18.23;;;;;;;11.94;100.00;100881.00;4990771;28;20606;-49
2022/05/11 05:54:05;;;;;;;26.80;20.45;;;;;;;11.97;100.00;100882.66;4989628;28;20181;-49
2022/05/11 05:56:32;;;;;;;20.83;16.80;;;;;;;11.98;100.00;100888.91;4991015;28;20192;-49
2022/05/11 05:59:01;;;;;;;28.50;20.02;;;;;;;11.99;100.00;100880.78;4991521;28;20192;-48
2022/05/11 06:01:27;;;;;;;25.30;19.05;;;;;;;12.13;100.00;100891.81;4989374;28;20242;-48
2022/05/11 06:03:53;;;;;;;29.55;21.20;;;;;;;12.11;100.00;100892.81;4990706;28;20173;-46
2022/05/11 06:06:19;;;;;;;25.75;20.65;;;;;;;12.19;100.00;100881.72;4991414;28;20637;-46
2022/05/11 06:08:45;;;;;;;28.58;20.13;;;;;;;12.27;100.00;100871.53;4990976;28;20668;-48
2022/05/11 06:11:11;;;;;;;27.15;20.88;;;;;;;12.33;100.00;100868.53;4989260;28;20526;-48
2022/05/11 06:13:37;;;;;;;27.95;21.42;;;;;;;12.34;100.00;100871.16;4990233;28;20523;-48
2022/05/11 06:16:09;;;;;;;28.10;21.00;;;;;;;12.34;100.00;100868.47;4989405;28;20196;-48
2022/05/11 06:18:35;;;;;;;25.90;20.65;;;;;;;12.39;100.00;100867.41;4965202;28;20300;-48
2022/05/11 06:21:01;;;;;;;28.13;19.85;;;;;;;12.49;100.00;100860.69;4989928;28;20197;-45
2022/05/11 06:23:26;;;;;;;25.60;19.83;;;;;;;12.58;100.00;100858.44;4982266;28;20200;-47
2022/05/11 06:25:52;;;;;;;26.70;20.40;;;;;;;12.53;100.00;100867.66;4990054;28;20197;-48
2022/05/11 06:28:19;;;;;;;23.73;19.50;;;;;;;12.62;100.00;100856.50;4989836;28;20291;-49
2022/05/11 06:30:46;;;;;;;25.88;20.95;;;;;;;12.74;100.00;100869.34;4989591;28;20208;-48
2022/05/11 06:33:11;;;;;;;23.17;19.30;;;;;;;12.69;100.00;100852.56;4989988;28;20165;-48
2022/05/11 06:35:37;;;;;;;26.73;19.23;;;;;;;12.62;100.00;100852.94;4990591;28;20169;-47
2022/05/11 06:38:08;;;;;;;27.50;19.15;;;;;;;12.70;100.00;100858.81;4987265;28;20591;-46
2022/05/11 06:40:33;;;;;;;23.02;18.10;;;;;;;12.83;100.00;100861.78;4989731;28;20201;-47
2022/05/11 06:43:01;;;;;;;22.33;18.23;;;;;;;12.77;100.00;100847.69;4990168;28;20177;-47
2022/05/11 06:45:28;;;;;;;23.50;18.70;;;;;;;12.87;100.00;100841.88;4989877;28;20188;-47
2022/05/11 06:47:53;;;;;;;18.75;16.70;;;;;;;12.89;100.00;100842.69;4990164;28;20621;-49
2022/05/11 06:50:20;;;;;;;22.42;17.13;;;;;;;12.93;100.00;100845.16;4989885;28;20220;-49
2022/05/11 06:52:46;;;;;;;21.33;17.10;;;;;;;12.93;100.00;100842.47;4990203;28;20181;-49
2022/05/11 07:00:41;;;;;;;19.23;15.95;;;;;;;13.24;98.01;100846.34;4989029;28;20212;-48
2022/05/11 07:03:07;;;;;;;18.90;16.10;;;;;;;13.39;97.65;100852.84;4989917;28;20546;-47
2022/05/11 07:05:34;;;;;;;17.20;15.15;;;;;;;13.50;96.92;100842.41;4972694;28;20530;-45
2022/05/11 07:08:00;;;;;;;17.63;14.80;;;;;;;13.66;96.07;100838.94;4989856;28;20170;-48
2022/05/11 07:10:26;;;;;;;15.77;14.00;;;;;;;13.83;94.57;100830.00;4989793;28;20621;-47
2022/05/11 07:12:51;;;;;;;18.65;14.77;;;;;;;13.85;93.84;100839.75;4986950;28;20177;-48
2022/05/11 07:15:19;;;;;;;16.73;14.60;;;;;;;13.69;94.16;100838.78;4989682;28;20174;-46
2022/05/11 07:17:56;;;;;;;17.10;14.05;;;;;;;13.81;93.34;100846.22;4990276;28;20233;-48
2022/05/11 07:20:26;;;;;;;15.25;13.05;;;;;;;13.94;93.33;100843.78;4990106;28;20680;-46
2022/05/11 07:22:52;;;;;;;18.42;13.35;;;;;;;13.92;93.41;100829.50;4989258;28;20170;-45
2022/05/11 07:25:20;;;;;;;17.17;13.88;;;;;;;13.85;92.99;100831.66;4990013;28;20162;-47
2022/05/11 07:27:46;;;;;;;19.45;13.55;;;;;;;13.94;92.26;100831.16;4990396;28;20607;-46
2022/05/11 07:30:15;;;;;;;15.85;13.15;;;;;;;13.86;91.60;100821.75;4989978;28;20677;-46
2022/05/11 07:32:41;;;;;;;13.95;12.45;;;;;;;13.89;92.13;100829.69;4989984;28;20185;-48
2022/05/11 07:35:06;;;;;;;15.40;12.45;;;;;;;14.01;92.83;100819.16;4989993;28;20513;-47
2022/05/11 07:37:32;;;;;;;16.15;12.55;;;;;;;13.89;92.65;100821.59;4990217;28;20174;-46
2022/05/11 07:39:59;;;;;;;17.38;13.10;;;;;;;13.78;92.83;100817.63;4989866;28;20284;-46
2022/05/11 07:42:26;;;;;;;17.15;12.80;;;;;;;13.83;93.18;100798.53;4990259;28;20188;-45
2022/05/11 07:44:52;;;;;;;15.95;12.60;;;;;;;13.94;93.05;100798.84;4990514;28;20209;-46
2022/05/11 07:47:20;;;;;;;15.25;12.13;;;;;;;13.95;92.84;100805.09;4994597;28;20216;-46
2022/05/11 07:49:47;;;;;;;17.08;12.30;;;;;;;13.95;92.87;100808.69;4993572;28;20213;-48
2022/05/11 07:52:13;;;;;;;13.88;11.07;;;;;;;13.95;93.11;100800.59;4977326;28;20186;-46
2022/05/11 07:54:40;;;;;;;14.27;11.68;;;;;;;14.05;92.36;100808.19;4972165;28;20569;-45
2022/05/11 07:59:52;;;;;;;14.45;11.35;;;;;;;14.31;91.91;100793.31;4989689;28;20165;-46
2022/05/11 08:02:18;;;;;;;13.43;11.85;;;;;;;14.40;91.75;100798.19;4992599;28;20185;-42
2022/05/11 08:04:45;;;;;;;13.77;11.98;;;;;;;14.37;91.61;100799.25;4992815;28;20177;-44
2022/05/11 08:07:13;;;;;;;14.15;12.32;;;;;;;14.33;92.42;100796.81;4977898;28;20565;-50
2022/05/11 08:09:39;;;;;;;14.95;12.02;;;;;;;14.25;91.26;100789.13;4992391;28;20193;-47
2022/05/11 08:12:06;;;;;;;14.65;11.73;;;;;;;14.34;91.14;100785.06;4993083;28;20261;-48
2022/05/11 08:14:31;;;;;;;12.88;11.40;;;;;;;14.56;90.98;100782.97;4992433;28;20177;-46
2022/05/11 08:16:57;;;;;;;14.02;11.65;;;;;;;14.52;90.53;100777.78;4992558;28;20188;-48
2022/05/11 08:19:24;;;;;;;12.60;11.27;;;;;;;14.67;90.23;100768.00;4992530;28;20539;-44
2022/05/11 08:21:52;;;;;;;15.02;11.43;;;;;;;14.62;89.95;100771.81;4992465;28;20197;-48
2022/05/11 08:24:18;;;;;;;13.98;11.70;;;;;;;14.60;90.21;100789.91;4991308;28;20560;-47
2022/05/11 08:26:50;;;;;;;14.80;12.18;;;;;;;14.72;90.13;100776.72;4992084;28;20185;-46
2022/05/11 08:33:19;;;;;;;12.73;10.48;;;;;;;14.71;89.72;100759.66;4992337;28;20189;-48
2022/05/11 08:34:48;;;;;;;13.30;10.70;;;;;;;14.75;90.11;100750.44;4991789;28;20193;-48
2022/05/11 08:37:14;;;;;;;13.60;10.45;;;;;;;14.70;89.36;100754.34;4989357;28;20357;-44
2022/05/11 08:39:40;;;;;;;13.48;10.20;;;;;;;14.73;89.35;100755.03;4992019;28;20177;-45
2022/05/11 08:42:06;;;;;;;13.20;10.50;;;;;;;14.86;89.26;100746.25;4992284;28;20566;-49
2022/05/11 08:44:34;;;;;;;12.52;10.05;;;;;;;15.15;88.02;100755.34;4992123;28;20196;-48
2022/05/11 08:47:34;;;;;;;12.95;10.00;;;;;;;15.35;87.01;100749.66;4991845;28;20240;-46
2022/05/11 08:50:09;;;;;;;11.65;9.35;;;;;;;15.47;85.62;100747.19;4979031;28;20229;-45
2022/05/11 08:52:43;;;;;;;15.27;9.77;;;;;;;16.00;84.80;100741.22;4991986;28;20170;-45
2022/05/11 08:55:11;;;;;;;10.25;9.10;;;;;;;16.45;82.18;100746.53;4984041;28;20712;-48
2022/05/11 08:57:38;;;;;;;9.80;8.57;;;;;;;16.54;80.39;100735.13;4988673;28;20170;-43
2022/05/11 09:00:13;;;;;;;12.32;8.90;;;;;;;16.83;80.28;100735.94;4991915;28;20224;-45
2022/05/11 09:03:02;;;;;;;10.82;8.13;;;;;;;16.95;78.49;100739.69;4977055;28;20213;-45
2022/05/11 09:05:30;;;;;;;9.43;8.07;;;;;;;16.84;78.00;100734.97;4989672;28;20176;-44
2022/05/11 09:07:57;;;;;;;11.20;8.10;;;;;;;17.39;77.87;100733.09;4991920;28;20189;-45
2022/05/11 09:10:24;;;;;;;8.43;7.55;;;;;;;17.56;75.39;100740.09;4991045;28;20236;-48
2022/05/11 09:13:03;;;;;;;10.80;8.00;;;;;;;17.35;76.51;100741.56;4991687;28;20190;-47
2022/05/11 09:15:53;;;;;;;8.93;7.38;;;;;;;17.14;75.34;100735.72;4973694;28;20191;-48
2022/05/11 09:18:38;;;;;;;11.13;7.50;;;;;;;17.11;74.76;100738.66;4990685;28;20234;-48
2022/05/11 09:21:25;;;;;;;12.65;8.13;;;;;;;17.02;76.13;100723.91;4991542;28;20304;-48
2022/05/11 09:24:13;;;;;;;9.73;7.50;;;;;;;17.28;74.85;100730.28;4990934;28;20169;-46
2022/05/11 09:26:44;;;;;;;9.68;7.22;;;;;;;16.91;75.93;100716.50;4991769;28;20201;-46
2022/05/11 09:29:19;;;;;;;9.25;8.23;;;;;;;16.67;76.13;100718.97;4991474;28;20216;-47
2022/05/11 09:31:46;;;;;;;11.18;7.65;;;;;;;16.74;75.65;100719.41;4991877;28;20232;-47
2022/05/11 09:34:25;;;;;;;9.70;7.38;;;;;;;16.86;75.28;100706.00;4990771;28;20653;-48
2022/05/11 09:37:01;;;;;;;13.75;7.75;;;;;;;17.03;76.42;100717.50;4991529;28;20205;-46
2022/05/11 09:39:27;;;;;;;12.13;8.32;;;;;;;17.29;75.38;100705.81;4991749;28;20216;-46
2022/05/11 09:41:56;;;;;;;8.55;7.63;;;;;;;17.40;75.61;100698.75;4991377;28;20197;-48
2022/05/11 09:44:26;;;;;;;11.98;7.22;;;;;;;17.47;74.39;100697.34;4973623;28;20184;-48
2022/05/11 09:46:53;;;;;;;11.25;7.55;;;;;;;17.71;74.62;100690.25;4991102;28;20181;-47
2022/05/11 09:49:19;;;;;;;9.20;6.93;;;;;;;17.92;73.64;100692.44;4991462;28;20213;-45
2022/05/11 09:51:49;;;;;;;9.88;7.80;;;;;;;17.79;73.03;100689.69;4990038;28;20296;-47
2022/05/11 09:54:18;;;;;;;9.23;7.22;;;;;;;17.98;73.90;100694.72;4969648;28;20340;-46
2022/05/11 09:57:08;;;;;;;11.15;7.38;;;;;;;17.95;72.90;100688.63;4991249;28;20195;-45
2022/05/11 09:59:46;;;;;;;8.55;7.13;;;;;;;17.84;73.48;100694.81;4991064;28;20664;-46
2022/05/11 10:02:38;;;;;;;8.60;6.50;;;;;;;17.70;71.89;100702.03;4991012;28;20260;-46
2022/05/11 10:05:28;;;;;;;8.73;6.35;;;;;;;18.12;71.33;100694.56;4990549;28;20185;-45
2022/05/11 10:08:09;;;;;;;9.52;6.03;;;;;;;18.73;68.43;100697.34;4991137;28;20316;-47
2022/05/11 10:10:47;;;;;;;12.27;6.63;;;;;;;18.43;69.02;100696.91;4990844;28;20275;-48
2022/05/11 10:13:21;;;;;;;11.38;6.18;;;;;;;18.90;68.94;100693.41;4991344;28;20200;-46
2022/05/11 10:21:50;;;;;;;11.00;5.85;;;;;;;18.12;66.98;100689.16;4990639;28;20209;-48
2022/05/11 10:24:37;;;;;;;8.25;5.53;;;;;;;17.85;68.60;100683.00;4990477;28;20212;-47
2022/05/11 10:27:08;;;;;;;10.10;5.45;;;;;;;18.20;68.04;100685.91;4990807;28;20197;-48
2022/05/11 10:29:40;;;;;;;7.00;5.65;;;;;;;18.48;68.51;100667.63;4990782;28;20202;-46
2022/05/11 10:32:08;;;;;;;7.07;5.22;;;;;;;18.58;67.82;100662.34;4990990;28;20182;-49
2022/05/11 10:35:02;;;;;;;10.25;5.70;;;;;;;18.55;67.56;100663.44;4990146;28;20212;-47
2022/05/11 10:37:37;;;;;;;7.95;5.28;;;;;;;18.56;69.51;100664.31;4990872;28;20189;-47
2022/05/11 10:40:28;;;;;;;9.27;5.18;;;;;;;18.60;67.60;100673.97;4990094;28;20195;-48
2022/05/11 10:43:19;;;;;;;13.25;6.22;;;;;;;18.67;67.24;100676.13;4990668;28;20696;-49
2022/05/11 10:45:59;;;;;;;7.55;5.15;;;;;;;18.47;66.00;100679.44;4990222;28;20539;-48
2022/05/11 10:48:43;;;;;;;6.63;3.80;;;;;;;18.03;65.95;100670.84;4990648;28;20264;-47
2022/05/11 10:51:28;;;;;;;5.55;3.30;;;;;;;18.70;63.50;100677.72;4990445;28;20244;-48
2022/05/11 10:54:05;;;;;;;8.50;3.40;;;;;;;18.96;60.87;100673.09;4990582;28;20193;-47
2022/05/11 10:56:54;;;;;;;5.55;2.90;;;;;;;18.80;59.98;100673.34;4990465;28;20539;-47
2022/05/11 10:59:28;;;;;;;9.65;3.40;;;;;;;18.65;61.06;100669.03;4990759;28;20181;-47
2022/05/11 11:02:22;;;;;;;7.15;3.17;;;;;;;19.00;58.93;100660.13;4990287;28;20200;-48
2022/05/11 11:04:56;;;;;;;6.18;2.72;;;;;;;18.87;58.46;100665.63;4989973;28;20287;-47
2022/05/11 11:07:35;;;;;;;6.78;3.13;;;;;;;18.98;58.98;100659.38;4990633;28;20173;-46
2022/05/11 11:10:18;;;;;;;7.88;3.08;;;;;;;19.21;60.83;100665.78;4990356;28;20209;-45
2022/05/11 11:12:56;;;;;;;10.38;3.50;;;;;;;19.09;60.34;100654.00;4990347;28;20728;-48
2022/05/11 11:15:28;;;;;;;8.40;3.70;;;;;;;19.00;62.35;100652.88;4988805;28;20594;-48
2022/05/11 11:17:56;;;;;;;11.57;4.18;;;;;;;18.71;61.81;100650.47;4989971;28;20181;-46
2022/05/11 11:20:23;;;;;;;8.00;3.67;;;;;;;18.89;61.03;100650.97;4991979;28;20201;-45
2022/05/11 11:23:09;;;;;;;10.77;3.80;;;;;;;18.86;60.80;100645.75;4994226;28;20625;-49
2022/05/11 11:25:47;;;;;;;9.63;4.30;;;;;;;19.47;60.06;100637.44;4993360;28;20181;-45
2022/05/11 11:28:15;;;;;;;9.35;4.20;;;;;;;19.26;59.82;100642.72;4994256;28;20733;-47
2022/05/11 11:30:59;;;;;;;6.28;3.45;;;;;;;18.53;61.56;100647.28;4993963;28;20205;-48
2022/05/11 11:33:33;;;;;;;7.38;3.40;;;;;;;19.02;61.46;100644.59;4994266;28;20177;-48
2022/05/11 11:36:27;;;;;;;8.82;3.63;;;;;;;19.41;62.39;100650.63;4993633;28;20231;-48
2022/05/11 11:38:56;;;;;;;6.70;3.20;;;;;;;19.53;59.69;100639.66;4994034;28;20268;-47
2022/05/11 11:41:23;;;;;;;11.90;3.75;;;;;;;19.51;57.57;100633.50;4993971;28;20201;-45
2022/05/11 11:43:58;;;;;;;10.05;3.20;;;;;;;19.88;59.13;100637.88;4976195;28;20200;-47